Terminal Aerodrome Forecast
Issued by NWS Memphis, TN

Current Version | Previous Version | Text Only | Print | Product List | Glossary On
Versions: 1 2 3 4 5 6 7 8 9 10 11 12 13 14
000
FTUS44 KMEG 251732
TAFMKL
TAF
KMKL 251732Z 2518/2618 24005KT P6SM VCTS SCT040CB SCT250
     FM260000 00000KT P6SM SCT250
     FM260600 00000KT 5SM BR SCT250
      TEMPO 2609/2613 1SM BR
     FM261600 VRB04KT P6SM VCTS SCT040CB SCT250=

USA.gov is the U.S. government's official web portal to all federal, state and local government web resources and services.